| Temperature (°F) | Max | Average | Min |
|---|---|---|---|
| Max Temperature | 70 | 56.1 | 37 |
| Avg Temperature | 60.04 | 46.49 | 34.99 |
| Min Temperature | 52 | 39.61 | 27 |
| Precipitation (in) | Max | Average | Min | Sum |
|---|---|---|---|---|
| Precipitation | 0.73 | 0.08 | 0 | 2.41 |
| Dew Point (°F) | Max | Average | Min |
|---|---|---|---|
| Dew Point | 41.18 | 26.5 | 11.94 |
| Wind (mph) | Max | Average | Min |
|---|---|---|---|
| Wind | 40 | 17.42 | 9 |
| Gust Wind | 69 | 24.69 | 16 |
| Sea Level Pressure (in) | Max | Average | Min |
|---|---|---|---|
| Sea Level Pressure | 20.32 | 20.19 | 20.05 |
| Date | Temp High/Low | Dew Pt High/Low | Humidity | Wind | Max Wind | Wind Gust | Pressure | Precip. | Condition |
|---|---|---|---|---|---|---|---|---|---|
| 9/1/2023 | 70 °F / 52 °F | 36 °F / 23 °F | 33 % | 15 mph | - | 20.25 in | 0 in | ||
| 9/2/2023 | 63 °F / 46 °F | 46 °F / 28 °F | 53 % | 18 mph | - | 20.3 in | 0.3 in | ||
| 9/3/2023 | 63 °F / 46 °F | 50 °F / 36 °F | 68 % | 15 mph | - | 20.23 in | 0.37 in | ||
| 9/4/2023 | 61 °F / 37 °F | 41 °F / 32 °F | 63 % | 26 mph | - | 20.05 in | 0 in | ||
| 9/5/2023 | 54 °F / 36 °F | 39 °F / 30 °F | 78 % | 24 mph | - | 20.17 in | 0 in | ||
| 9/6/2023 | 64 °F / 39 °F | 37 °F / 19 °F | 48 % | 14 mph | - | 20.23 in | 0 in | ||
| 9/7/2023 | 57 °F / 45 °F | 27 °F / 19 °F | 35 % | 18 mph | - | 20.22 in | 0 in | ||
| 9/8/2023 | 63 °F / 46 °F | 25 °F / 9 °F | 21 % | 17 mph | - | 20.31 in | 0 in | ||
| 9/9/2023 | 61 °F / 43 °F | 37 °F / 12 °F | 35 % | 15 mph | - | 20.32 in | 0 in | ||
| 9/10/2023 | 50 °F / 36 °F | 45 °F / 25 °F | 74 % | 17 mph | - | 20.26 in | 0.44 in | ||
| 9/11/2023 | 41 °F / 34 °F | 41 °F / 34 °F | 100 % | 9 mph | - | 20.23 in | 0.25 in | ||
| 9/12/2023 | 52 °F / 36 °F | 39 °F / 28 °F | 71 % | 13 mph | - | 20.19 in | 0 in | ||
| 9/13/2023 | 52 °F / 37 °F | 34 °F / 23 °F | 54 % | 12 mph | - | 20.15 in | 0 in | ||
| 9/14/2023 | 45 °F / 34 °F | 39 °F / 28 °F | 82 % | 14 mph | - | 20.17 in | 0.79 in | ||
| 9/15/2023 | 37 °F / 32 °F | 37 °F / 25 °F | 96 % | 7 mph | - | 20.21 in | 0.26 in | ||
| 9/16/2023 | 55 °F / 34 °F | 36 °F / 14 °F | 52 % | 14 mph | - | 20.26 in | 0 in | ||
| 9/17/2023 | 57 °F / 41 °F | 30 °F / 21 °F | 43 % | 20 mph | - | 20.24 in | 0 in | ||
| 9/18/2023 | 54 °F / 37 °F | 32 °F / 23 °F | 53 % | 24 mph | - | 20.17 in | 0 in | ||
| 9/19/2023 | 52 °F / 36 °F | 32 °F / 25 °F | 64 % | 23 mph | - | 20.11 in | 0 in | ||
| 9/20/2023 | 52 °F / 34 °F | 30 °F / 21 °F | 54 % | 21 mph | - | 20.1 in | 0 in | ||
| 9/21/2023 | 52 °F / 37 °F | 32 °F / 19 °F | 50 % | 15 mph | - | 20.09 in | 0 in | ||
| 9/22/2023 | 55 °F / 37 °F | 32 °F / 3 °F | 32 % | 15 mph | - | 20.08 in | 0 in | ||
| 9/23/2023 | 48 °F / 27 °F | 27 °F / 7 °F | 49 % | 40 mph | - | 20.07 in | 0 in | ||
| 9/24/2023 | 54 °F / 34 °F | 19 °F / 9 °F | 33 % | 20 mph | - | 20.18 in | 0 in | ||
| 9/25/2023 | 57 °F / 39 °F | 23 °F / 7 °F | 31 % | 12 mph | - | 20.28 in | 0 in | ||
| 9/26/2023 | 59 °F / 43 °F | 27 °F / 10 °F | 34 % | 15 mph | - | 20.26 in | 0 in | ||
| 9/27/2023 | 63 °F / 45 °F | 28 °F / 16 °F | 33 % | 15 mph | - | 20.2 in | 0 in | ||
| 9/28/2023 | 64 °F / 45 °F | 25 °F / 12 °F | 29 % | 23 mph | - | 20.12 in | 0 in | ||
| 9/29/2023 | 61 °F / 43 °F | 30 °F / 12 °F | 36 % | 28 mph | - | 20.11 in | 0 in | ||
| 9/30/2023 | 63 °F / 41 °F | 32 °F / 10 °F | 33 % | 12 mph | - | 20.11 in | 0 in |